Time;durP1;ratioP1;P1;durP2;ratioP2;P2;SDS_P1;SDS_P2;PMS_P1;PMS_P2;Temp;Humidity;BMP_temperature;BMP_pressure;BME280_temperature;BME280_humidity;BME280_pressure;Samples;Min_cycle;Max_cycle;Signal;HPM_P1;HPM_P2
2023/05/19 00:02:14;;;;;;;3.85;2.70;;;;;;;;;;4986940;28;20050;-62
2023/05/19 00:04:40;;;;;;;3.92;2.80;;;;;;;;;;4977338;28;20074;-61
2023/05/19 00:07:07;;;;;;;4.53;2.78;;;;;;;;;;4986824;28;20057;-63
2023/05/19 00:09:32;;;;;;;4.47;2.88;;;;;;;;;;4986368;28;20054;-62
2023/05/19 00:11:57;;;;;;;3.60;2.65;;;;;;;;;;4986760;28;20092;-63
2023/05/19 00:14:23;;;;;;;3.80;2.47;;;;;;;;;;4980508;28;20043;-61
2023/05/19 00:16:48;;;;;;;4.07;3.13;;;;;;;;;;4968742;28;20042;-60
2023/05/19 00:19:15;;;;;;;4.15;2.72;;;;;;;;;;4976090;28;20149;-60
2023/05/19 00:21:40;;;;;;;3.97;2.75;;;;;;;;;;4986257;28;20564;-60
2023/05/19 00:24:06;;;;;;;3.87;2.53;;;;;;;;;;4983962;28;20141;-61
2023/05/19 00:26:31;;;;;;;3.67;2.58;;;;;;;;;;4985570;28;20297;-61
2023/05/19 00:28:56;;;;;;;3.95;2.50;;;;;;;;;;4968506;28;20034;-59
2023/05/19 00:31:21;;;;;;;3.47;2.57;;;;;;;;;;4968601;28;20040;-62
2023/05/19 00:33:47;;;;;;;3.80;2.50;;;;;;;;;;4968407;28;20054;-61
2023/05/19 00:36:12;;;;;;;3.13;2.67;;;;;;;;;;4979363;28;20270;-62
2023/05/19 00:38:37;;;;;;;4.80;3.33;;;;;;;;;;4980943;28;20273;-59
2023/05/19 00:41:03;;;;;;;3.60;2.55;;;;;;;;;;4968345;28;20031;-62
2023/05/19 00:43:29;;;;;;;3.60;2.53;;;;;;;;;;4968492;28;20050;-61
2023/05/19 00:45:54;;;;;;;3.25;2.30;;;;;;;;;;4972152;28;20130;-61
2023/05/19 00:48:20;;;;;;;4.20;2.83;;;;;;;;;;4981529;28;20068;-62
2023/05/19 00:50:45;;;;;;;3.72;2.60;;;;;;;;;;4976892;28;20505;-62
2023/05/19 00:53:11;;;;;;;3.25;2.50;;;;;;;;;;4986133;28;20027;-62
2023/05/19 00:55:39;;;;;;;4.25;2.60;;;;;;;;;;4982622;28;20045;-63
2023/05/19 00:58:04;;;;;;;3.33;2.50;;;;;;;;;;4981440;28;20062;-62
2023/05/19 01:00:30;;;;;;;4.07;2.92;;;;;;;;;;4968410;28;20501;-61
2023/05/19 01:02:55;;;;;;;3.97;2.83;;;;;;;;;;4984335;28;20489;-62
2023/05/19 01:05:21;;;;;;;3.03;2.40;;;;;;;;;;4962507;28;20360;-63
2023/05/19 01:07:46;;;;;;;3.70;2.70;;;;;;;;;;4982395;28;20038;-63
2023/05/19 01:10:11;;;;;;;3.70;2.73;;;;;;;;;;4985596;28;20100;-63
2023/05/19 01:12:36;;;;;;;3.57;2.40;;;;;;;;;;4968133;28;20065;-61
2023/05/19 01:15:02;;;;;;;3.13;2.17;;;;;;;;;;4985755;28;20289;-62
2023/05/19 01:17:33;;;;;;;4.70;2.70;;;;;;;;;;4985468;28;20034;-62
2023/05/19 01:20:00;;;;;;;4.07;2.60;;;;;;;;;;4975589;28;20129;-62
2023/05/19 01:22:41;;;;;;;3.28;2.50;;;;;;;;;;4985314;28;20524;-61
2023/05/19 01:25:25;;;;;;;3.80;2.92;;;;;;;;;;4984376;28;20047;-61
2023/05/19 01:28:23;;;;;;;3.53;2.50;;;;;;;;;;4985297;28;20038;-63
2023/05/19 01:30:51;;;;;;;3.38;2.50;;;;;;;;;;4959260;28;20050;-60
2023/05/19 01:33:16;;;;;;;3.40;2.47;;;;;;;;;;4959617;28;20439;-61
2023/05/19 01:35:42;;;;;;;3.00;2.20;;;;;;;;;;4966732;28;20035;-63
2023/05/19 01:38:07;;;;;;;4.10;2.70;;;;;;;;;;4985235;28;20057;-62
2023/05/19 01:40:33;;;;;;;3.45;2.53;;;;;;;;;;4985353;28;20030;-61
2023/05/19 01:42:58;;;;;;;3.78;2.50;;;;;;;;;;4985579;28;20093;-63
2023/05/19 01:45:24;;;;;;;4.28;2.30;;;;;;;;;;4956963;28;20042;-61
2023/05/19 01:47:51;;;;;;;3.40;2.42;;;;;;;;;;4985817;28;20065;-60
2023/05/19 01:50:16;;;;;;;3.13;2.10;;;;;;;;;;4985499;28;20436;-62
2023/05/19 01:52:42;;;;;;;3.60;2.27;;;;;;;;;;4985823;28;20092;-62
2023/05/19 01:55:07;;;;;;;2.97;2.28;;;;;;;;;;4983307;28;20757;-60
2023/05/19 01:57:35;;;;;;;3.75;2.40;;;;;;;;;;4984811;28;20535;-63
2023/05/19 02:00:07;;;;;;;3.50;2.50;;;;;;;;;;4970442;28;20533;-61
2023/05/19 02:02:47;;;;;;;2.85;2.30;;;;;;;;;;4985300;28;20028;-61
2023/05/19 02:05:14;;;;;;;2.83;2.00;;;;;;;;;;4978510;28;20061;-62
2023/05/19 02:07:50;;;;;;;4.45;2.60;;;;;;;;;;4951128;28;20460;-61
2023/05/19 02:10:18;;;;;;;3.50;2.22;;;;;;;;;;4955997;28;20109;-63
2023/05/19 02:12:43;;;;;;;3.35;2.30;;;;;;;;;;4985267;28;20504;-63
2023/05/19 02:15:35;;;;;;;3.47;2.47;;;;;;;;;;4980100;28;20513;-67
2023/05/19 02:18:03;;;;;;;4.10;2.35;;;;;;;;;;4980954;28;20280;-60
2023/05/19 02:20:28;;;;;;;3.40;2.63;;;;;;;;;;4960028;28;20042;-62
2023/05/19 02:22:54;;;;;;;3.20;2.28;;;;;;;;;;4984613;28;20045;-63
2023/05/19 02:25:20;;;;;;;3.38;2.28;;;;;;;;;;4984185;28;20065;-63
2023/05/19 02:27:47;;;;;;;3.13;2.30;;;;;;;;;;4984822;28;20108;-60
2023/05/19 02:30:13;;;;;;;3.33;2.05;;;;;;;;;;4983125;28;20038;-62
2023/05/19 02:32:38;;;;;;;3.17;2.33;;;;;;;;;;4984510;28;20045;-63
2023/05/19 02:35:04;;;;;;;3.05;2.22;;;;;;;;;;4973462;28;20293;-62
2023/05/19 02:37:29;;;;;;;4.18;2.63;;;;;;;;;;4983858;28;20092;-60
2023/05/19 02:39:55;;;;;;;2.63;2.05;;;;;;;;;;4986800;28;20515;-61
2023/05/19 02:42:20;;;;;;;3.42;2.20;;;;;;;;;;4987839;28;20077;-62
2023/05/19 02:44:45;;;;;;;3.13;2.30;;;;;;;;;;4988231;28;20035;-62
2023/05/19 02:47:11;;;;;;;3.13;2.28;;;;;;;;;;4988288;28;20312;-62
2023/05/19 02:49:36;;;;;;;3.08;2.22;;;;;;;;;;4970490;28;20145;-60
2023/05/19 02:52:05;;;;;;;3.10;2.03;;;;;;;;;;4987958;28;20045;-64
2023/05/19 02:54:30;;;;;;;2.85;2.00;;;;;;;;;;4987050;28;20725;-60
2023/05/19 02:56:56;;;;;;;3.50;2.40;;;;;;;;;;4987997;28;20045;-61
2023/05/19 02:59:22;;;;;;;3.20;2.10;;;;;;;;;;4970349;28;20030;-63
2023/05/19 03:01:47;;;;;;;3.05;2.28;;;;;;;;;;4987729;28;20495;-63
2023/05/19 03:04:12;;;;;;;3.83;2.40;;;;;;;;;;4978736;28;20047;-62
2023/05/19 03:06:38;;;;;;;3.25;2.17;;;;;;;;;;4975579;28;20039;-61
2023/05/19 03:09:03;;;;;;;2.70;2.05;;;;;;;;;;4965755;28;20381;-63
2023/05/19 03:11:29;;;;;;;3.80;2.40;;;;;;;;;;4987315;28;20390;-62
2023/05/19 03:13:54;;;;;;;3.22;2.25;;;;;;;;;;4987422;28;20041;-58
2023/05/19 03:16:20;;;;;;;2.63;2.03;;;;;;;;;;4987220;28;20030;-62
2023/05/19 03:18:46;;;;;;;7.28;3.22;;;;;;;;;;4984881;28;20294;-62
2023/05/19 03:21:11;;;;;;;3.90;2.70;;;;;;;;;;4970284;28;20133;-63
2023/05/19 03:23:36;;;;;;;3.33;2.20;;;;;;;;;;4987234;28;20285;-62
2023/05/19 03:26:01;;;;;;;3.20;2.30;;;;;;;;;;4987433;28;20382;-63
2023/05/19 03:28:27;;;;;;;3.15;2.20;;;;;;;;;;4987093;28;20412;-61
2023/05/19 03:30:52;;;;;;;4.38;2.28;;;;;;;;;;4987307;28;20062;-64
2023/05/19 03:33:17;;;;;;;3.23;2.30;;;;;;;;;;4987534;28;20453;-64
2023/05/19 03:35:43;;;;;;;3.40;2.23;;;;;;;;;;4981312;28;20347;-60
2023/05/19 03:38:08;;;;;;;2.72;1.92;;;;;;;;;;4987557;28;20281;-63
2023/05/19 03:40:33;;;;;;;3.10;2.05;;;;;;;;;;4984353;28;20097;-62
2023/05/19 03:42:59;;;;;;;3.03;2.00;;;;;;;;;;4968907;28;20038;-61
2023/05/19 03:45:25;;;;;;;3.88;2.00;;;;;;;;;;4979276;28;20078;-61
2023/05/19 03:47:50;;;;;;;3.47;2.15;;;;;;;;;;4979538;28;20084;-61
2023/05/19 03:50:15;;;;;;;3.00;2.20;;;;;;;;;;4984563;28;20073;-64
2023/05/19 03:52:44;;;;;;;3.07;2.10;;;;;;;;;;4983117;28;20488;-64
2023/05/19 03:55:09;;;;;;;2.80;2.28;;;;;;;;;;4978253;28;20038;-64
2023/05/19 03:57:34;;;;;;;2.27;2.00;;;;;;;;;;4973525;28;20553;-65
2023/05/19 03:59:59;;;;;;;3.83;2.47;;;;;;;;;;4954163;28;20290;-62
2023/05/19 04:02:25;;;;;;;3.40;2.03;;;;;;;;;;4977307;28;20297;-62
2023/05/19 04:04:50;;;;;;;3.03;2.10;;;;;;;;;;4979129;28;20317;-60
2023/05/19 04:07:15;;;;;;;3.00;2.20;;;;;;;;;;4986972;28;20108;-62
2023/05/19 04:09:41;;;;;;;3.22;2.50;;;;;;;;;;4987404;28;20419;-62
2023/05/19 04:12:06;;;;;;;2.60;2.05;;;;;;;;;;4986901;28;20034;-62
2023/05/19 04:14:31;;;;;;;2.83;2.10;;;;;;;;;;4982133;28;20099;-63
2023/05/19 04:16:56;;;;;;;3.63;2.30;;;;;;;;;;4986791;28;20033;-61
2023/05/19 04:19:22;;;;;;;3.38;2.00;;;;;;;;;;4966715;28;20509;-63
2023/05/19 04:21:47;;;;;;;3.17;2.13;;;;;;;;;;4969123;28;20042;-60
2023/05/19 04:24:12;;;;;;;4.50;2.27;;;;;;;;;;4984593;28;20046;-63
2023/05/19 04:26:40;;;;;;;2.53;2.00;;;;;;;;;;4978682;28;20053;-59
2023/05/19 04:29:05;;;;;;;3.22;2.10;;;;;;;;;;4986814;28;20324;-62
2023/05/19 04:31:33;;;;;;;3.10;2.13;;;;;;;;;;4985944;28;20038;-62
2023/05/19 04:34:00;;;;;;;7.22;2.38;;;;;;;;;;4986284;28;20037;-63
2023/05/19 04:36:26;;;;;;;3.33;2.03;;;;;;;;;;4968123;28;20097;-61
2023/05/19 04:38:53;;;;;;;3.28;2.20;;;;;;;;;;4982469;28;20540;-60
2023/05/19 04:41:19;;;;;;;3.00;2.00;;;;;;;;;;4975544;28;20162;-60
2023/05/19 04:43:47;;;;;;;2.70;1.88;;;;;;;;;;4977702;28;20186;-60
2023/05/19 04:46:12;;;;;;;3.42;2.05;;;;;;;;;;4983542;28;20038;-62
2023/05/19 04:48:37;;;;;;;2.85;2.20;;;;;;;;;;4983576;28;20031;-60
2023/05/19 04:51:03;;;;;;;3.10;2.30;;;;;;;;;;4979558;28;20097;-61
2023/05/19 04:53:29;;;;;;;6.63;2.10;;;;;;;;;;4976569;28;20094;-61
2023/05/19 04:55:55;;;;;;;2.85;2.05;;;;;;;;;;4974490;28;20082;-62
2023/05/19 04:58:20;;;;;;;2.60;2.05;;;;;;;;;;4986141;28;20038;-63
2023/05/19 05:00:45;;;;;;;2.80;2.10;;;;;;;;;;4966768;28;20044;-62
2023/05/19 05:03:13;;;;;;;2.67;1.93;;;;;;;;;;4985331;28;20293;-63
2023/05/19 05:05:38;;;;;;;3.03;2.13;;;;;;;;;;4986181;28;20301;-62
2023/05/19 05:08:03;;;;;;;3.30;2.20;;;;;;;;;;4955821;28;20557;-62
2023/05/19 05:10:28;;;;;;;4.07;2.22;;;;;;;;;;4975903;28;20129;-60
2023/05/19 05:12:54;;;;;;;3.10;2.00;;;;;;;;;;4983783;28;20045;-64
2023/05/19 05:15:19;;;;;;;2.85;2.00;;;;;;;;;;4986063;28;20353;-63
2023/05/19 05:17:45;;;;;;;3.05;2.17;;;;;;;;;;4976679;28;20326;-62
2023/05/19 05:20:11;;;;;;;2.70;2.00;;;;;;;;;;4974844;28;20038;-62
2023/05/19 05:22:37;;;;;;;2.95;1.85;;;;;;;;;;4968279;28;20035;-62
2023/05/19 05:25:03;;;;;;;2.83;1.88;;;;;;;;;;4985076;28;20508;-61
2023/05/19 05:27:28;;;;;;;3.75;2.17;;;;;;;;;;4967754;28;20053;-62
2023/05/19 05:29:53;;;;;;;2.50;1.92;;;;;;;;;;4980789;28;20046;-61
2023/05/19 05:32:19;;;;;;;3.50;2.00;;;;;;;;;;4983239;28;20129;-61
2023/05/19 05:34:44;;;;;;;2.88;2.40;;;;;;;;;;4973017;28;20185;-61
2023/05/19 05:37:09;;;;;;;3.35;1.90;;;;;;;;;;4959778;28;20473;-62
2023/05/19 05:39:34;;;;;;;4.53;2.17;;;;;;;;;;4983127;28;20039;-62
2023/05/19 05:42:00;;;;;;;2.30;1.90;;;;;;;;;;4979377;28;20045;-62
2023/05/19 05:44:25;;;;;;;3.40;2.20;;;;;;;;;;4983345;28;20053;-64
2023/05/19 05:46:50;;;;;;;2.87;2.20;;;;;;;;;;4980711;28;20034;-62
2023/05/19 05:49:16;;;;;;;2.88;2.10;;;;;;;;;;4978796;28;20286;-60
2023/05/19 05:51:41;;;;;;;3.03;2.17;;;;;;;;;;4978967;28;20125;-65
2023/05/19 05:54:06;;;;;;;4.35;2.38;;;;;;;;;;4968135;28;20113;-64
2023/05/19 05:56:36;;;;;;;2.95;2.22;;;;;;;;;;4985161;28;20096;-61
2023/05/19 05:59:01;;;;;;;2.72;2.10;;;;;;;;;;4978861;28;20528;-62
2023/05/19 06:01:26;;;;;;;3.97;1.95;;;;;;;;;;4975891;28;20038;-64
2023/05/19 06:03:52;;;;;;;3.10;2.38;;;;;;;;;;4981261;28;20499;-66
2023/05/19 06:06:17;;;;;;;3.47;2.40;;;;;;;;;;4985719;28;20081;-66
2023/05/19 06:08:42;;;;;;;2.53;2.03;;;;;;;;;;4983351;28;20285;-64
2023/05/19 06:11:08;;;;;;;4.27;2.33;;;;;;;;;;4985023;28;20508;-64
2023/05/19 06:13:34;;;;;;;4.20;2.05;;;;;;;;;;4986561;28;20762;-63
2023/05/19 06:15:59;;;;;;;2.90;2.20;;;;;;;;;;4971580;28;20488;-62
2023/05/19 06:18:24;;;;;;;3.70;2.10;;;;;;;;;;4981475;28;20477;-62
2023/05/19 06:20:50;;;;;;;4.03;2.17;;;;;;;;;;4970727;28;20042;-64
2023/05/19 06:23:15;;;;;;;3.53;2.38;;;;;;;;;;4981998;28;20462;-63
2023/05/19 06:25:40;;;;;;;2.67;2.20;;;;;;;;;;4983950;28;20056;-65
2023/05/19 06:28:05;;;;;;;2.87;2.20;;;;;;;;;;4970423;28;20274;-66
2023/05/19 06:30:30;;;;;;;2.70;2.27;;;;;;;;;;4979828;28;20281;-61
2023/05/19 06:32:56;;;;;;;4.43;2.40;;;;;;;;;;4987708;28;20500;-63
2023/05/19 06:35:21;;;;;;;3.10;1.93;;;;;;;;;;4981742;28;20286;-66
2023/05/19 06:37:46;;;;;;;2.97;2.20;;;;;;;;;;4980366;28;20116;-65
2023/05/19 06:40:12;;;;;;;3.95;2.33;;;;;;;;;;4981828;28;20039;-64
2023/05/19 06:42:37;;;;;;;2.95;2.10;;;;;;;;;;4978353;28;20121;-61
2023/05/19 06:45:02;;;;;;;3.27;2.17;;;;;;;;;;4971600;28;20137;-63
2023/05/19 06:47:27;;;;;;;3.45;2.03;;;;;;;;;;4971099;28;20293;-64
2023/05/19 06:49:55;;;;;;;5.60;2.47;;;;;;;;;;4980372;28;20034;-60
2023/05/19 06:52:21;;;;;;;3.00;2.20;;;;;;;;;;4987970;28;20273;-62
2023/05/19 06:54:47;;;;;;;4.60;2.40;;;;;;;;;;4971219;28;20471;-63
2023/05/19 06:57:12;;;;;;;3.58;2.50;;;;;;;;;;4988080;28;20088;-64
2023/05/19 06:59:40;;;;;;;5.00;2.33;;;;;;;;;;4987588;28;20078;-60
2023/05/19 07:02:05;;;;;;;3.10;2.20;;;;;;;;;;4987698;28;20276;-62
2023/05/19 07:04:31;;;;;;;2.92;2.05;;;;;;;;;;4981675;28;20457;-60
2023/05/19 07:06:57;;;;;;;3.67;2.83;;;;;;;;;;4982750;28;20113;-62
2023/05/19 07:09:22;;;;;;;3.00;2.40;;;;;;;;;;4979690;28;20118;-63
2023/05/19 07:11:47;;;;;;;5.57;2.53;;;;;;;;;;4978006;28;20025;-62
2023/05/19 07:14:13;;;;;;;3.73;2.50;;;;;;;;;;4988010;28;20258;-60
2023/05/19 07:16:38;;;;;;;2.73;2.20;;;;;;;;;;4986356;28;20277;-63
2023/05/19 07:19:03;;;;;;;3.10;2.20;;;;;;;;;;4955722;28;20049;-66
2023/05/19 07:21:28;;;;;;;3.20;2.40;;;;;;;;;;4967944;28;20284;-64
2023/05/19 07:23:54;;;;;;;3.17;2.33;;;;;;;;;;4965091;28;20842;-59
2023/05/19 07:26:19;;;;;;;4.05;2.50;;;;;;;;;;4973371;28;21206;-61
2023/05/19 07:28:44;;;;;;;3.95;2.20;;;;;;;;;;4987039;28;20449;-64
2023/05/19 07:31:10;;;;;;;4.45;2.47;;;;;;;;;;4987681;28;20037;-61
2023/05/19 07:33:35;;;;;;;3.40;2.27;;;;;;;;;;4973245;28;20195;-63
2023/05/19 07:36:00;;;;;;;3.80;2.60;;;;;;;;;;4983011;28;20029;-63
2023/05/19 07:38:27;;;;;;;4.00;2.43;;;;;;;;;;4976854;28;20499;-64
2023/05/19 07:40:52;;;;;;;3.33;2.20;;;;;;;;;;4986720;28;20019;-65
2023/05/19 07:43:18;;;;;;;3.53;2.55;;;;;;;;;;4981373;28;20026;-59
2023/05/19 07:45:43;;;;;;;3.07;2.30;;;;;;;;;;4960415;28;20042;-63
2023/05/19 07:48:08;;;;;;;3.13;2.30;;;;;;;;;;4987049;28;20129;-63
2023/05/19 07:50:33;;;;;;;3.90;2.80;;;;;;;;;;4986380;28;20711;-64
2023/05/19 07:52:58;;;;;;;2.83;2.30;;;;;;;;;;4969818;28;20267;-63
2023/05/19 07:55:25;;;;;;;3.50;2.30;;;;;;;;;;4986663;28;20270;-62
2023/05/19 07:57:50;;;;;;;4.55;2.55;;;;;;;;;;4977206;28;20019;-62
2023/05/19 08:00:16;;;;;;;4.17;2.83;;;;;;;;;;4980750;28;20081;-64
2023/05/19 08:02:41;;;;;;;4.38;2.47;;;;;;;;;;4969626;28;20265;-64
2023/05/19 08:05:08;;;;;;;3.22;2.17;;;;;;;;;;4986017;28;20099;-61
2023/05/19 08:07:33;;;;;;;3.30;2.13;;;;;;;;;;4979599;28;20031;-62
2023/05/19 08:09:58;;;;;;;3.00;2.40;;;;;;;;;;4980809;28;20061;-64
2023/05/19 08:12:23;;;;;;;3.93;2.43;;;;;;;;;;4986942;28;20026;-64
2023/05/19 08:14:49;;;;;;;3.27;2.20;;;;;;;;;;4985787;28;20266;-62
2023/05/19 08:17:14;;;;;;;3.33;2.57;;;;;;;;;;4986613;28;20453;-63
2023/05/19 08:19:39;;;;;;;3.40;2.43;;;;;;;;;;4986735;28;20515;-61
2023/05/19 08:22:04;;;;;;;3.53;2.40;;;;;;;;;;4986841;28;20480;-62
2023/05/19 08:24:31;;;;;;;3.65;2.33;;;;;;;;;;4982910;28;20045;-63
2023/05/19 08:26:56;;;;;;;3.28;2.22;;;;;;;;;;4977541;28;20026;-63
2023/05/19 08:29:22;;;;;;;3.20;2.33;;;;;;;;;;4968846;28;20034;-63
2023/05/19 08:31:47;;;;;;;3.67;2.50;;;;;;;;;;4986404;28;20261;-64
2023/05/19 08:34:12;;;;;;;3.00;2.10;;;;;;;;;;4985943;28;20595;-64
2023/05/19 08:36:37;;;;;;;4.35;2.97;;;;;;;;;;4965018;28;20305;-63
2023/05/19 08:39:03;;;;;;;3.55;2.70;;;;;;;;;;4968275;28;20125;-59
2023/05/19 08:41:28;;;;;;;2.63;2.05;;;;;;;;;;4981615;28;20089;-63
2023/05/19 08:43:53;;;;;;;3.37;2.40;;;;;;;;;;4967949;28;20052;-62
2023/05/19 08:46:19;;;;;;;2.75;2.42;;;;;;;;;;4981466;28;20744;-64
2023/05/19 08:48:44;;;;;;;3.13;2.22;;;;;;;;;;4967342;28;20538;-59
2023/05/19 08:51:12;;;;;;;2.63;2.17;;;;;;;;;;4968507;28;20065;-60
2023/05/19 08:53:39;;;;;;;3.25;2.65;;;;;;;;;;4985919;28;20306;-64
2023/05/19 08:56:09;;;;;;;3.10;2.40;;;;;;;;;;4954564;28;20528;-63
2023/05/19 08:58:34;;;;;;;3.50;2.50;;;;;;;;;;4955186;28;20034;-63
2023/05/19 09:01:00;;;;;;;3.10;2.38;;;;;;;;;;4973981;28;20121;-62
2023/05/19 09:03:25;;;;;;;2.80;2.00;;;;;;;;;;4965765;28;20092;-61
2023/05/19 09:05:50;;;;;;;4.23;2.67;;;;;;;;;;4970167;28;20034;-63
2023/05/19 09:08:15;;;;;;;3.97;2.90;;;;;;;;;;4959956;28;20038;-65
2023/05/19 09:10:40;;;;;;;3.63;2.63;;;;;;;;;;4981062;28;20043;-66
2023/05/19 09:13:06;;;;;;;4.30;2.60;;;;;;;;;;4975061;28;20322;-62
2023/05/19 09:15:32;;;;;;;4.97;2.57;;;;;;;;;;4984139;28;20067;-62
2023/05/19 09:18:04;;;;;;;4.55;2.63;;;;;;;;;;4979098;28;20052;-62
2023/05/19 09:20:30;;;;;;;4.38;2.60;;;;;;;;;;4951417;28;20532;-60
2023/05/19 09:22:56;;;;;;;3.38;2.72;;;;;;;;;;4967644;28;20171;-61
2023/05/19 09:25:21;;;;;;;3.20;2.40;;;;;;;;;;4967625;28;20046;-63
2023/05/19 09:27:48;;;;;;;4.32;2.90;;;;;;;;;;4965073;28;20041;-65
2023/05/19 09:30:14;;;;;;;4.60;2.78;;;;;;;;;;4973911;28;20646;-64
2023/05/19 09:32:39;;;;;;;3.15;2.40;;;;;;;;;;4971936;28;20045;-62
2023/05/19 09:35:05;;;;;;;4.35;2.60;;;;;;;;;;4975959;28;20046;-61
2023/05/19 09:37:31;;;;;;;4.47;2.97;;;;;;;;;;4963068;28;20433;-65
2023/05/19 09:39:56;;;;;;;4.43;2.88;;;;;;;;;;4977057;28;20519;-66
2023/05/19 09:42:25;;;;;;;4.50;2.60;;;;;;;;;;4981501;28;20046;-66
2023/05/19 09:44:57;;;;;;;4.05;2.90;;;;;;;;;;4986073;28;20117;-64
2023/05/19 09:47:23;;;;;;;3.72;2.70;;;;;;;;;;4983433;28;20532;-67
2023/05/19 09:49:49;;;;;;;4.13;3.08;;;;;;;;;;4989623;28;20069;-63
2023/05/19 09:52:15;;;;;;;5.40;2.80;;;;;;;;;;4989181;28;20519;-65
2023/05/19 09:54:40;;;;;;;4.30;2.60;;;;;;;;;;4989487;28;20064;-63
2023/05/19 09:57:06;;;;;;;4.03;3.03;;;;;;;;;;4989317;28;20568;-65
2023/05/19 09:59:31;;;;;;;4.40;2.90;;;;;;;;;;4989801;28;20273;-63
2023/05/19 10:01:57;;;;;;;3.17;2.47;;;;;;;;;;4960721;28;20038;-66
2023/05/19 10:04:23;;;;;;;4.10;2.42;;;;;;;;;;4965329;28;20461;-65
2023/05/19 10:06:52;;;;;;;3.75;2.55;;;;;;;;;;4975290;28;20035;-62
2023/05/19 10:09:19;;;;;;;5.00;3.30;;;;;;;;;;4984949;28;20038;-63
2023/05/19 10:11:44;;;;;;;3.92;2.70;;;;;;;;;;4989311;28;20045;-66
2023/05/19 10:14:10;;;;;;;4.10;2.83;;;;;;;;;;4969769;28;20051;-63
2023/05/19 10:16:35;;;;;;;4.60;2.70;;;;;;;;;;4989493;28;20277;-64
2023/05/19 10:19:00;;;;;;;3.93;2.70;;;;;;;;;;4987429;28;20277;-61
2023/05/19 10:21:25;;;;;;;5.03;2.60;;;;;;;;;;4980957;28;20885;-66
2023/05/19 10:23:51;;;;;;;3.03;2.45;;;;;;;;;;4977348;28;20045;-65
2023/05/19 10:26:16;;;;;;;4.50;2.53;;;;;;;;;;4975289;28;20037;-63
2023/05/19 10:28:41;;;;;;;4.20;2.60;;;;;;;;;;4962185;28;20278;-66
2023/05/19 10:31:08;;;;;;;3.58;2.70;;;;;;;;;;4970990;28;20490;-65
2023/05/19 10:33:52;;;;;;;4.15;2.65;;;;;;;;;;4979834;28;20092;-63
2023/05/19 10:36:36;;;;;;;3.88;2.67;;;;;;;;;;4981167;28;20136;-64
2023/05/19 10:39:05;;;;;;;4.20;2.80;;;;;;;;;;4983237;28;20658;-67
2023/05/19 10:41:30;;;;;;;3.33;2.30;;;;;;;;;;4978512;28;20035;-65
2023/05/19 10:44:08;;;;;;;3.40;2.40;;;;;;;;;;4973064;28;20401;-66
2023/05/19 10:46:34;;;;;;;4.25;2.33;;;;;;;;;;4969708;28;20484;-70
2023/05/19 10:48:59;;;;;;;3.43;2.43;;;;;;;;;;4969615;28;20027;-64
2023/05/19 10:51:30;;;;;;;3.35;2.50;;;;;;;;;;4970652;28;20304;-63
2023/05/19 10:53:57;;;;;;;4.53;2.63;;;;;;;;;;4975802;28;20042;-67
2023/05/19 10:56:29;;;;;;;3.50;3.08;;;;;;;;;;4957915;28;20450;-66
2023/05/19 10:58:55;;;;;;;3.75;2.67;;;;;;;;;;4985399;28;20126;-62
2023/05/19 11:01:23;;;;;;;3.45;2.63;;;;;;;;;;4972782;28;20165;-65
2023/05/19 11:03:52;;;;;;;3.83;2.67;;;;;;;;;;4986441;28;20032;-66
2023/05/19 11:06:21;;;;;;;3.47;2.88;;;;;;;;;;4987799;28;20058;-65
2023/05/19 11:08:48;;;;;;;4.32;2.83;;;;;;;;;;4988252;28;20026;-63
2023/05/19 11:11:15;;;;;;;3.97;2.67;;;;;;;;;;4964975;28;20050;-67
2023/05/19 11:13:42;;;;;;;3.17;2.50;;;;;;;;;;4966641;28;20549;-66
2023/05/19 11:16:08;;;;;;;3.47;2.65;;;;;;;;;;4958185;28;20065;-64
2023/05/19 11:18:33;;;;;;;3.50;2.65;;;;;;;;;;4963603;28;20062;-67
2023/05/19 11:20:59;;;;;;;3.90;2.67;;;;;;;;;;4950979;28;20031;-65
2023/05/19 11:23:24;;;;;;;3.35;2.45;;;;;;;;;;4957658;28;20361;-64
2023/05/19 11:25:50;;;;;;;3.03;2.53;;;;;;;;;;4968259;28;20130;-62
2023/05/19 11:28:19;;;;;;;3.70;2.55;;;;;;;;;;4964644;28;20090;-64
2023/05/19 11:30:45;;;;;;;3.03;2.40;;;;;;;;;;4949488;28;20127;-63
2023/05/19 11:33:12;;;;;;;3.67;2.80;;;;;;;;;;4967066;28;20121;-66
2023/05/19 11:35:37;;;;;;;3.45;2.83;;;;;;;;;;4956505;28;20951;-66
2023/05/19 11:38:02;;;;;;;4.50;2.70;;;;;;;;;;4962711;28;20043;-66
2023/05/19 11:40:28;;;;;;;3.38;2.40;;;;;;;;;;4966863;28;20158;-66
2023/05/19 11:42:53;;;;;;;3.42;2.55;;;;;;;;;;4963377;28;20035;-66
2023/05/19 11:45:25;;;;;;;3.53;2.60;;;;;;;;;;4964086;28;20109;-66
2023/05/19 11:47:50;;;;;;;4.63;2.83;;;;;;;;;;4963086;28;20039;-64
2023/05/19 11:50:16;;;;;;;4.20;3.05;;;;;;;;;;4966692;28;20030;-65
2023/05/19 11:52:44;;;;;;;3.10;2.53;;;;;;;;;;4947270;28;20039;-65
2023/05/19 11:55:13;;;;;;;4.55;2.95;;;;;;;;;;4950596;28;20134;-62
2023/05/19 11:57:39;;;;;;;4.63;2.80;;;;;;;;;;4967759;28;20409;-66
2023/05/19 12:00:07;;;;;;;4.32;2.85;;;;;;;;;;4962370;28;20159;-64
2023/05/19 12:02:33;;;;;;;3.50;2.80;;;;;;;;;;4966869;28;20162;-66
2023/05/19 12:04:58;;;;;;;3.33;2.70;;;;;;;;;;4958744;28;20556;-64
2023/05/19 12:07:23;;;;;;;3.10;2.47;;;;;;;;;;4957731;28;20696;-62
2023/05/19 12:09:49;;;;;;;3.30;2.60;;;;;;;;;;4969799;28;20440;-67
2023/05/19 12:12:15;;;;;;;3.65;2.72;;;;;;;;;;4980338;28;20046;-66
2023/05/19 12:14:40;;;;;;;3.55;2.63;;;;;;;;;;4981079;28;20042;-67
2023/05/19 12:17:10;;;;;;;3.70;2.88;;;;;;;;;;4963786;28;20035;-67
2023/05/19 12:19:36;;;;;;;3.83;3.00;;;;;;;;;;4986991;28;20093;-66
2023/05/19 12:22:02;;;;;;;3.40;2.70;;;;;;;;;;4954295;28;20038;-67
2023/05/19 12:24:27;;;;;;;3.58;2.60;;;;;;;;;;4986055;28;20212;-66
2023/05/19 12:27:03;;;;;;;4.28;2.95;;;;;;;;;;4982744;28;20546;-62
2023/05/19 12:29:29;;;;;;;3.60;2.85;;;;;;;;;;4980773;28;20185;-65
2023/05/19 12:31:54;;;;;;;4.32;2.95;;;;;;;;;;4961965;28;20049;-65
2023/05/19 12:34:19;;;;;;;3.80;2.63;;;;;;;;;;4986243;28;20038;-65
2023/05/19 12:36:45;;;;;;;4.57;2.90;;;;;;;;;;4979549;28;20580;-65
2023/05/19 12:39:10;;;;;;;4.28;3.00;;;;;;;;;;4983835;28;20504;-65
2023/05/19 12:41:36;;;;;;;4.38;3.17;;;;;;;;;;4980454;28;20129;-67
2023/05/19 12:44:02;;;;;;;4.28;2.80;;;;;;;;;;4985850;28;20165;-67
2023/05/19 12:46:27;;;;;;;3.90;2.72;;;;;;;;;;4955049;28;20500;-66
2023/05/19 12:48:53;;;;;;;4.82;3.13;;;;;;;;;;4962689;28;20038;-66
2023/05/19 12:51:18;;;;;;;3.90;3.00;;;;;;;;;;4953802;28;20186;-65
2023/05/19 12:53:43;;;;;;;3.85;2.97;;;;;;;;;;4976171;28;20281;-65
2023/05/19 12:56:09;;;;;;;4.30;3.47;;;;;;;;;;4954824;28;20484;-68
2023/05/19 12:58:34;;;;;;;3.90;2.88;;;;;;;;;;4962090;28;20140;-63
2023/05/19 13:00:59;;;;;;;4.33;3.00;;;;;;;;;;4967259;28;20049;-62
2023/05/19 13:03:25;;;;;;;4.20;2.90;;;;;;;;;;4984954;28;20309;-66
2023/05/19 13:05:50;;;;;;;3.67;2.90;;;;;;;;;;4984272;28;20050;-61
2023/05/19 13:08:16;;;;;;;3.95;3.08;;;;;;;;;;4983835;28;20034;-62
2023/05/19 13:10:41;;;;;;;3.72;2.83;;;;;;;;;;4981294;28;20054;-68
2023/05/19 13:13:07;;;;;;;4.22;3.00;;;;;;;;;;4984940;28;20134;-67
2023/05/19 13:15:34;;;;;;;3.58;2.88;;;;;;;;;;4984395;28;20390;-63
2023/05/19 13:17:59;;;;;;;3.88;3.08;;;;;;;;;;4964377;28;20049;-64
2023/05/19 13:20:25;;;;;;;3.97;2.90;;;;;;;;;;4969861;28;20038;-65
2023/05/19 13:22:50;;;;;;;3.70;3.05;;;;;;;;;;4971704;28;20066;-60
2023/05/19 13:25:15;;;;;;;4.27;3.10;;;;;;;;;;4982473;28;20508;-61
2023/05/19 13:27:40;;;;;;;4.13;3.20;;;;;;;;;;4976496;28;20031;-68
2023/05/19 13:30:06;;;;;;;4.65;3.40;;;;;;;;;;4976351;28;20535;-65
2023/05/19 13:32:31;;;;;;;5.47;3.22;;;;;;;;;;4982453;28;20118;-65
2023/05/19 13:34:57;;;;;;;5.75;3.50;;;;;;;;;;4984994;28;20042;-66
2023/05/19 13:37:22;;;;;;;4.97;3.58;;;;;;;;;;4979125;28;20046;-64
2023/05/19 13:39:48;;;;;;;4.88;4.20;;;;;;;;;;4979835;28;20046;-67
2023/05/19 13:42:13;;;;;;;6.47;4.70;;;;;;;;;;4984398;28;20069;-66
2023/05/19 13:44:38;;;;;;;6.85;4.47;;;;;;;;;;4977313;28;20149;-64
2023/05/19 13:47:03;;;;;;;7.27;4.87;;;;;;;;;;4961960;28;20077;-65
2023/05/19 13:49:29;;;;;;;6.50;4.53;;;;;;;;;;4985272;28;20278;-65
2023/05/19 13:51:57;;;;;;;6.60;4.70;;;;;;;;;;4980757;28;20554;-67
2023/05/19 13:54:22;;;;;;;6.65;4.90;;;;;;;;;;4967590;28;20573;-67
2023/05/19 13:56:48;;;;;;;7.03;4.85;;;;;;;;;;4950200;28;20177;-67
2023/05/19 13:59:13;;;;;;;10.30;5.23;;;;;;;;;;4984086;28;20038;-61
2023/05/19 14:01:38;;;;;;;6.38;4.85;;;;;;;;;;4977391;28;21124;-60
2023/05/19 14:04:04;;;;;;;8.20;5.57;;;;;;;;;;4961696;28;20124;-61
2023/05/19 14:06:29;;;;;;;7.43;5.43;;;;;;;;;;4978558;28;20286;-66
2023/05/19 14:08:54;;;;;;;8.07;5.40;;;;;;;;;;4957950;28;20414;-63
2023/05/19 14:11:20;;;;;;;8.15;5.40;;;;;;;;;;4982332;28;20057;-61
2023/05/19 14:13:51;;;;;;;8.32;5.65;;;;;;;;;;4984720;28;20026;-67
2023/05/19 14:16:17;;;;;;;9.85;5.93;;;;;;;;;;4984476;28;20034;-69
2023/05/19 14:18:42;;;;;;;8.25;5.78;;;;;;;;;;4984862;28;20121;-67
2023/05/19 14:21:07;;;;;;;9.20;5.60;;;;;;;;;;4982770;28;20688;-62
2023/05/19 14:23:33;;;;;;;8.90;5.50;;;;;;;;;;4980646;28;20484;-66
2023/05/19 14:25:58;;;;;;;9.43;5.97;;;;;;;;;;4984332;28;20281;-69
2023/05/19 14:28:23;;;;;;;7.87;5.40;;;;;;;;;;4983263;28;20034;-62
2023/05/19 14:30:48;;;;;;;9.07;6.37;;;;;;;;;;4985192;28;20280;-66
2023/05/19 14:33:14;;;;;;;7.93;5.50;;;;;;;;;;4976818;28;20317;-65
2023/05/19 14:35:39;;;;;;;8.15;6.07;;;;;;;;;;4987722;28;20034;-64
2023/05/19 14:38:04;;;;;;;8.93;6.30;;;;;;;;;;4988626;28;20290;-63